createdAt,value
2022-09-18T00:01:09.621Z,91.60
2022-09-18T00:03:36.612Z,91.60
2022-09-18T00:06:16.337Z,91.60
2022-09-18T00:08:43.948Z,91.60
2022-09-18T00:11:13.102Z,91.60
2022-09-18T00:13:41.492Z,91.60
2022-09-18T00:16:10.738Z,91.60
2022-09-18T00:18:37.892Z,91.60
2022-09-18T00:21:13.527Z,91.60
2022-09-18T00:23:41.653Z,91.60
2022-09-18T00:26:09.551Z,91.60
2022-09-18T00:28:36.759Z,91.60
2022-09-18T00:31:09.160Z,91.60
2022-09-18T00:33:37.550Z,91.60
2022-09-18T00:36:06.141Z,91.60
2022-09-18T00:38:33.419Z,91.60
2022-09-18T00:41:04.727Z,91.60
2022-09-18T00:43:34.577Z,91.60
2022-09-18T00:46:03.176Z,91.60
2022-09-18T00:48:46.696Z,91.60
2022-09-18T00:51:15.228Z,91.60
2022-09-18T00:53:55.615Z,91.60
2022-09-18T00:56:22.575Z,91.60
2022-09-18T00:58:49.423Z,91.60
2022-09-18T01:01:16.160Z,91.60
2022-09-18T01:03:42.992Z,91.60
2022-09-18T01:06:16.486Z,91.60
2022-09-18T01:09:21.421Z,91.60
2022-09-18T01:12:13.745Z,91.50
2022-09-18T01:15:12.721Z,91.50
2022-09-18T01:17:49.898Z,91.60
2022-09-18T01:20:31.440Z,91.60
2022-09-18T01:23:35.676Z,91.50
2022-09-18T01:26:45.950Z,91.50
2022-09-18T01:29:27.736Z,91.60
2022-09-18T01:32:13.793Z,91.60
2022-09-18T01:35:09.617Z,91.60
2022-09-18T01:38:06.352Z,91.60
2022-09-18T01:41:11.732Z,91.60
2022-09-18T01:43:40.520Z,91.60
2022-09-18T01:46:19.682Z,91.60
2022-09-18T01:48:57.400Z,91.50
2022-09-18T01:51:29.516Z,91.50
2022-09-18T01:54:04.107Z,91.50
2022-09-18T01:56:42.843Z,91.50
2022-09-18T01:59:15.373Z,91.60
2022-09-18T02:01:46.165Z,91.50
2022-09-18T02:04:21.192Z,91.50
2022-09-18T02:07:14.440Z,91.50
2022-09-18T02:09:44.611Z,91.50
2022-09-18T02:12:18.820Z,91.50
2022-09-18T02:14:49.629Z,91.50
2022-09-18T02:17:29.868Z,91.50
2022-09-18T02:20:05.170Z,91.50
2022-09-18T02:22:34.040Z,91.50
2022-09-18T02:25:04.402Z,91.50
2022-09-18T02:27:34.028Z,91.50
2022-09-18T02:30:03.273Z,91.50
2022-09-18T02:32:30.010Z,91.50
2022-09-18T02:34:57.085Z,91.50
2022-09-18T02:38:01.842Z,91.50
2022-09-18T02:40:32.197Z,91.50
2022-09-18T02:42:58.879Z,91.50
2022-09-18T02:46:02.707Z,91.50
2022-09-18T02:48:57.114Z,91.50
2022-09-18T02:51:44.109Z,91.40
2022-09-18T02:54:13.255Z,91.40
2022-09-18T02:56:48.995Z,91.40
2022-09-18T02:59:26.846Z,91.40
2022-09-18T03:01:55.774Z,91.40
2022-09-18T03:04:26.158Z,91.40
2022-09-18T03:06:53.534Z,91.40
2022-09-18T03:09:20.764Z,91.40
2022-09-18T03:11:47.868Z,91.40
2022-09-18T03:14:14.568Z,91.40
2022-09-18T03:16:41.436Z,91.40
2022-09-18T03:19:08.180Z,91.40
2022-09-18T03:21:34.851Z,91.40
2022-09-18T03:24:02.003Z,91.40
2022-09-18T03:26:28.996Z,91.40
2022-09-18T03:28:55.682Z,91.40
2022-09-18T03:31:22.481Z,91.40
2022-09-18T03:33:49.270Z,91.50
2022-09-18T03:36:16.284Z,91.50
2022-09-18T03:38:43.112Z,91.50
2022-09-18T03:41:09.938Z,91.50
2022-09-18T03:43:36.663Z,91.50
2022-09-18T03:46:03.475Z,91.50
2022-09-18T03:48:30.232Z,91.50
2022-09-18T03:50:56.998Z,91.50
2022-09-18T03:53:23.882Z,91.50
2022-09-18T03:55:50.817Z,91.50
2022-09-18T03:58:17.617Z,91.50
2022-09-18T04:00:45.067Z,91.50
2022-09-18T04:03:12.045Z,91.60
2022-09-18T04:05:39.137Z,91.60
2022-09-18T04:08:05.915Z,91.60
2022-09-18T04:10:33.273Z,91.60
2022-09-18T04:13:00.190Z,91.60
2022-09-18T04:15:26.875Z,91.60
2022-09-18T04:17:53.563Z,91.60
2022-09-18T04:20:20.262Z,91.60
2022-09-18T04:22:46.946Z,91.60
2022-09-18T04:25:13.756Z,91.60
2022-09-18T04:27:40.495Z,91.60
2022-09-18T04:30:07.811Z,91.60
2022-09-18T04:32:34.593Z,91.60
2022-09-18T04:35:01.316Z,91.60
2022-09-18T04:37:28.032Z,91.60
2022-09-18T04:39:54.769Z,91.60
2022-09-18T04:42:21.484Z,91.60
2022-09-18T04:44:48.218Z,91.60
2022-09-18T04:47:15.136Z,91.60
2022-09-18T04:49:41.824Z,91.60
2022-09-18T04:52:08.517Z,91.60
2022-09-18T04:54:35.399Z,91.60
2022-09-18T04:57:02.118Z,91.60
2022-09-18T04:59:28.808Z,91.60
2022-09-18T05:01:55.612Z,91.60
2022-09-18T05:04:22.357Z,91.60
2022-09-18T05:06:49.123Z,91.60
2022-09-18T05:09:15.828Z,91.60
2022-09-18T05:11:42.627Z,91.60
2022-09-18T05:14:09.298Z,91.60
2022-09-18T05:16:36.099Z,91.60
2022-09-18T05:19:03.203Z,91.60
2022-09-18T05:21:29.920Z,91.60
2022-09-18T05:23:56.974Z,91.60
2022-09-18T05:26:23.764Z,91.60
2022-09-18T05:28:50.824Z,91.60
2022-09-18T05:31:17.835Z,91.60
2022-09-18T05:33:44.725Z,91.60
2022-09-18T05:36:11.647Z,91.60
2022-09-18T05:38:38.570Z,91.60
2022-09-18T05:41:05.387Z,91.70
2022-09-18T05:43:32.311Z,91.60
2022-09-18T05:46:01.135Z,91.60
2022-09-18T05:48:28.497Z,91.60
2022-09-18T05:50:56.673Z,91.60
2022-09-18T05:53:23.370Z,91.60
2022-09-18T05:55:50.100Z,91.60
2022-09-18T05:58:19.275Z,91.70
2022-09-18T06:00:46.731Z,91.70
2022-09-18T06:03:15.605Z,91.70
2022-09-18T06:05:42.818Z,91.70
2022-09-18T06:08:11.307Z,91.70
2022-09-18T06:10:40.363Z,91.70
2022-09-18T06:13:10.402Z,91.70
2022-09-18T06:15:37.723Z,91.70
2022-09-18T06:18:06.643Z,91.70
2022-09-18T06:20:33.342Z,91.70
2022-09-18T06:23:01.545Z,91.70
2022-09-18T06:25:31.459Z,91.70
2022-09-18T06:28:00.240Z,91.70
2022-09-18T06:30:32.201Z,91.70
2022-09-18T06:33:04.676Z,91.70
2022-09-18T06:35:33.883Z,91.70
2022-09-18T06:38:05.230Z,91.70
2022-09-18T06:40:33.267Z,91.70
2022-09-18T06:43:04.533Z,91.70
2022-09-18T06:45:32.086Z,91.70
2022-09-18T06:48:03.237Z,91.70
2022-09-18T06:50:30.812Z,91.70
2022-09-18T06:53:12.252Z,91.70
2022-09-18T06:55:39.386Z,91.70
2022-09-18T06:58:06.277Z,91.70
2022-09-18T07:00:33.191Z,91.70
2022-09-18T07:03:02.101Z,91.70
2022-09-18T07:05:33.076Z,91.70
2022-09-18T07:08:00.223Z,91.70
2022-09-18T07:10:27.284Z,91.70
2022-09-18T07:12:57.860Z,91.70
2022-09-18T07:15:25.800Z,91.70
2022-09-18T07:17:55.495Z,91.70
2022-09-18T07:20:22.637Z,91.70
2022-09-18T07:22:54.245Z,91.70
2022-09-18T07:25:21.319Z,91.70
2022-09-18T07:27:48.684Z,91.70
2022-09-18T07:30:15.752Z,91.70
2022-09-18T07:32:42.509Z,91.70
2022-09-18T07:35:10.253Z,91.70
2022-09-18T07:37:38.993Z,91.70
2022-09-18T07:40:12.813Z,91.80
2022-09-18T07:42:40.023Z,91.80
2022-09-18T07:45:07.333Z,91.80
2022-09-18T07:47:34.170Z,91.80
2022-09-18T07:50:01.152Z,91.80
2022-09-18T07:52:27.889Z,91.80
2022-09-18T07:54:54.779Z,91.80
2022-09-18T07:57:21.507Z,91.70
2022-09-18T07:59:48.185Z,91.80
2022-09-18T08:02:15.026Z,91.80
2022-09-18T08:04:41.898Z,91.80
2022-09-18T08:07:08.820Z,91.80
2022-09-18T08:09:35.497Z,91.80
2022-09-18T08:12:03.522Z,91.80
2022-09-18T08:14:30.476Z,91.80
2022-09-18T08:16:57.804Z,91.80
2022-09-18T08:19:24.812Z,91.80
2022-09-18T08:21:51.642Z,91.80
2022-09-18T08:24:18.427Z,91.80
2022-09-18T08:26:45.956Z,91.90
2022-09-18T08:29:19.252Z,91.90
2022-09-18T08:31:49.355Z,91.90
2022-09-18T08:34:16.457Z,91.90
2022-09-18T08:36:43.146Z,91.90
2022-09-18T08:39:10.216Z,91.90
2022-09-18T08:41:48.935Z,91.90
2022-09-18T08:44:24.271Z,91.90
2022-09-18T08:46:50.996Z,91.90
2022-09-18T08:49:20.801Z,92.00
2022-09-18T08:51:50.320Z,92.00
2022-09-18T08:54:49.129Z,92.00
2022-09-18T08:57:39.184Z,92.00
2022-09-18T09:00:19.758Z,92.00
2022-09-18T09:03:13.247Z,92.00
2022-09-18T09:05:57.425Z,91.90
2022-09-18T09:08:36.199Z,92.00
2022-09-18T09:11:48.165Z,91.90
2022-09-18T09:14:34.271Z,91.90
2022-09-18T09:17:18.708Z,91.90
2022-09-18T09:19:52.009Z,91.90
2022-09-18T09:22:31.829Z,91.90
2022-09-18T09:25:13.729Z,91.90
2022-09-18T09:28:16.634Z,91.90
2022-09-18T09:30:47.002Z,91.80
2022-09-18T09:33:21.414Z,91.80
2022-09-18T09:35:55.496Z,91.80
2022-09-18T09:38:48.735Z,91.80
2022-09-18T09:41:41.488Z,91.80
2022-09-18T09:44:22.847Z,91.80
2022-09-18T09:47:16.326Z,91.80
2022-09-18T09:50:20.686Z,91.90
2022-09-18T09:52:47.717Z,91.90
2022-09-18T09:55:25.135Z,92.00
2022-09-18T09:58:06.908Z,92.00
2022-09-18T10:01:01.689Z,92.00
2022-09-18T10:03:34.884Z,91.80
2022-09-18T10:06:23.148Z,91.80
2022-09-18T10:09:05.510Z,91.80
2022-09-18T10:11:35.786Z,91.90
2022-09-18T10:14:17.163Z,91.90
2022-09-18T10:16:49.925Z,92.00
2022-09-18T10:19:19.588Z,92.00
2022-09-18T10:21:47.272Z,91.90
2022-09-18T10:24:44.396Z,91.90
2022-09-18T10:27:13.288Z,91.80
2022-09-18T10:29:40.509Z,91.80
2022-09-18T10:32:11.124Z,91.90
2022-09-18T10:34:45.171Z,91.90
2022-09-18T10:37:28.193Z,91.90
2022-09-18T10:40:00.102Z,91.90
2022-09-18T10:42:32.487Z,92.00
2022-09-18T10:45:20.447Z,92.00
2022-09-18T10:47:47.261Z,91.90
2022-09-18T10:50:14.216Z,91.90
2022-09-18T10:52:42.174Z,91.70
2022-09-18T10:55:18.362Z,91.70
2022-09-18T10:58:01.635Z,91.50
2022-09-18T11:00:36.912Z,91.40
2022-09-18T11:03:44.226Z,91.40
2022-09-18T11:06:23.911Z,91.40
2022-09-18T11:08:54.340Z,91.50
2022-09-18T11:11:34.319Z,91.50
2022-09-18T11:14:06.501Z,91.60
2022-09-18T11:16:42.019Z,91.60
2022-09-18T11:19:29.102Z,91.60
2022-09-18T11:21:59.787Z,91.20
2022-09-18T11:24:27.988Z,91.00
2022-09-18T11:26:57.364Z,91.20
2022-09-18T11:29:32.862Z,91.20
2022-09-18T11:32:05.661Z,91.20
2022-09-18T11:34:37.767Z,90.80
2022-09-18T11:37:12.831Z,90.70
2022-09-18T11:39:49.631Z,90.40
2022-09-18T11:42:17.275Z,86.80
2022-09-18T11:44:44.894Z,78.10
2022-09-18T11:47:20.956Z,84.20
2022-09-18T11:50:02.549Z,75.70
2022-09-18T11:52:58.991Z,45.90
2022-09-18T11:55:37.428Z,59.50
2022-09-18T11:58:15.612Z,38.60
2022-09-18T12:00:48.342Z,33.90
2022-09-18T12:03:20.957Z,28.60
2022-09-18T12:05:52.342Z,20.60
2022-09-18T12:08:25.102Z,36.10
2022-09-18T12:11:10.775Z,63.00
2022-09-18T12:14:08.051Z,76.30
2022-09-18T12:16:40.578Z,87.50
2022-09-18T12:19:23.618Z,85.50
2022-09-18T12:22:10.166Z,87.30
2022-09-18T12:24:36.905Z,89.40
2022-09-18T12:27:33.161Z,83.10
2022-09-18T12:30:19.964Z,90.00
2022-09-18T12:33:07.887Z,90.10
2022-09-18T12:35:56.318Z,89.70
2022-09-18T12:38:49.957Z,90.30
2022-09-18T12:41:30.464Z,88.40
2022-09-18T12:44:12.784Z,80.70
2022-09-18T12:47:07.416Z,86.20
2022-09-18T12:50:02.287Z,75.30
2022-09-18T12:52:31.823Z,68.70
2022-09-18T12:55:25.589Z,74.90
2022-09-18T12:58:03.059Z,27.20
2022-09-18T13:00:30.451Z,12.10
2022-09-18T13:03:15.084Z,20.10
2022-09-18T13:05:44.558Z,18.60
2022-09-18T13:08:14.134Z,20.10
2022-09-18T13:10:45.140Z,16.40
2022-09-18T13:13:14.058Z,20.30
2022-09-18T13:15:44.535Z,21.70
2022-09-18T13:18:56.429Z,38.80
2022-09-18T13:21:33.152Z,10.50
2022-09-18T13:24:01.676Z,7.40
2022-09-18T13:26:32.010Z,1.00
2022-09-18T13:28:59.187Z,4.30
2022-09-18T13:31:32.269Z,3.50
2022-09-18T13:34:00.804Z,1.00
2022-09-18T13:36:33.102Z,1.00
2022-09-18T13:39:44.844Z,1.00
2022-09-18T13:42:32.121Z,1.00
2022-09-18T13:45:16.800Z,1.00
2022-09-18T13:48:13.538Z,1.00
2022-09-18T13:50:52.462Z,1.00
2022-09-18T13:53:43.923Z,1.00
2022-09-18T13:56:16.102Z,1.00
2022-09-18T13:58:57.311Z,1.00
2022-09-18T14:01:42.154Z,1.00
2022-09-18T14:04:39.961Z,1.00
2022-09-18T14:07:19.642Z,1.00
2022-09-18T14:10:26.314Z,1.00
2022-09-18T14:13:31.247Z,1.00
2022-09-18T14:16:04.131Z,1.00
2022-09-18T14:18:44.517Z,1.00
2022-09-18T14:21:17.391Z,1.00
2022-09-18T14:23:46.857Z,1.00
2022-09-18T14:26:28.654Z,1.00
2022-09-18T14:29:12.079Z,1.00
2022-09-18T14:31:45.312Z,1.00
2022-09-18T14:34:22.880Z,1.00
2022-09-18T14:36:53.261Z,1.00
2022-09-18T14:39:26.642Z,1.00
2022-09-18T14:41:59.929Z,1.00
2022-09-18T14:44:32.550Z,1.00
2022-09-18T14:47:05.041Z,1.00
2022-09-18T14:49:34.638Z,1.00
2022-09-18T14:52:04.583Z,1.00
2022-09-18T14:54:39.213Z,1.00
2022-09-18T14:57:13.482Z,1.00
2022-09-18T14:59:40.588Z,1.00
2022-09-18T15:02:21.958Z,1.00
2022-09-18T15:04:49.402Z,1.00
2022-09-18T15:07:18.563Z,1.00
2022-09-18T15:09:49.018Z,1.00
2022-09-18T15:12:20.147Z,1.00
2022-09-18T15:14:47.776Z,1.00
2022-09-18T15:17:22.047Z,1.00
2022-09-18T15:19:59.171Z,1.00
2022-09-18T15:22:26.757Z,1.00
2022-09-18T15:24:53.821Z,1.00
2022-09-18T15:27:21.789Z,1.00
2022-09-18T15:29:55.083Z,1.00
2022-09-18T15:32:35.300Z,1.00
2022-09-18T15:35:05.120Z,1.00
2022-09-18T15:37:32.698Z,1.00
2022-09-18T15:40:01.192Z,1.00
2022-09-18T15:42:34.647Z,1.00
2022-09-18T15:45:01.313Z,1.00
2022-09-18T15:47:38.447Z,1.00
2022-09-18T15:50:15.274Z,1.00
2022-09-18T15:52:47.278Z,1.00
2022-09-18T15:55:18.512Z,1.00
2022-09-18T15:57:50.190Z,1.00
2022-09-18T16:00:31.432Z,1.00
2022-09-18T16:03:05.176Z,1.00
2022-09-18T16:05:39.298Z,1.00
2022-09-18T16:08:19.529Z,1.00
2022-09-18T16:10:50.977Z,1.00
2022-09-18T16:13:19.899Z,1.00
2022-09-18T16:15:47.727Z,1.00
2022-09-18T16:18:29.139Z,1.00
2022-09-18T16:20:57.625Z,1.00
2022-09-18T16:23:31.607Z,1.00
2022-09-18T16:26:07.322Z,1.00
2022-09-18T16:28:42.622Z,1.00
2022-09-18T16:31:12.063Z,1.00
2022-09-18T16:33:55.350Z,1.00
2022-09-18T16:36:34.121Z,1.00
2022-09-18T16:39:04.591Z,1.00
2022-09-18T16:41:32.869Z,1.00
2022-09-18T16:44:00.954Z,1.00
2022-09-18T16:46:38.311Z,1.00
2022-09-18T16:49:05.120Z,1.00
2022-09-18T16:51:31.924Z,1.00
2022-09-18T16:53:58.810Z,1.00
2022-09-18T16:56:34.983Z,1.00
2022-09-18T16:59:03.264Z,1.00
2022-09-18T17:01:43.577Z,1.00
2022-09-18T17:04:17.341Z,1.00
2022-09-18T17:06:44.063Z,1.00
2022-09-18T17:09:10.761Z,1.00
2022-09-18T17:11:37.487Z,1.00
2022-09-18T17:14:04.803Z,1.00
2022-09-18T17:16:44.113Z,1.00
2022-09-18T17:19:11.883Z,1.00
2022-09-18T17:21:38.983Z,1.00
2022-09-18T17:24:06.247Z,1.00
2022-09-18T17:26:35.585Z,1.00
2022-09-18T17:29:02.417Z,1.00
2022-09-18T17:31:29.271Z,1.00
2022-09-18T17:33:56.512Z,1.00
2022-09-18T17:36:23.747Z,1.00
2022-09-18T17:38:50.589Z,5.30
2022-09-18T17:41:19.306Z,10.90
2022-09-18T17:43:51.787Z,1.00
2022-09-18T17:46:18.619Z,3.60
2022-09-18T17:48:45.896Z,13.30
2022-09-18T17:51:18.345Z,11.40
2022-09-18T17:53:47.235Z,16.40
2022-09-18T17:56:18.247Z,13.40
2022-09-18T17:58:45.487Z,12.30
2022-09-18T18:01:18.042Z,11.50
2022-09-18T18:03:47.067Z,25.10
2022-09-18T18:06:15.493Z,35.50
2022-09-18T18:08:44.968Z,48.00
2022-09-18T18:11:17.030Z,60.80
2022-09-18T18:13:45.670Z,61.80
2022-09-18T18:16:22.020Z,62.60
2022-09-18T18:18:50.527Z,35.40
2022-09-18T18:21:18.092Z,60.00
2022-09-18T18:23:45.224Z,60.00
2022-09-18T18:26:11.980Z,53.10
2022-09-18T18:28:40.290Z,11.70
2022-09-18T18:31:12.034Z,18.70
2022-09-18T18:33:41.182Z,21.70
2022-09-18T18:36:22.657Z,8.90
2022-09-18T18:38:51.924Z,12.60
2022-09-18T18:41:20.053Z,29.20
2022-09-18T18:43:52.632Z,22.20
2022-09-18T18:46:19.884Z,40.50
2022-09-18T18:48:46.923Z,55.20
2022-09-18T18:51:15.928Z,63.20
2022-09-18T18:53:43.823Z,65.00
2022-09-18T18:56:16.332Z,72.80
2022-09-18T18:58:44.209Z,72.10
2022-09-18T19:01:19.784Z,51.10
2022-09-18T19:03:55.663Z,23.60
2022-09-18T19:06:23.872Z,28.60
2022-09-18T19:09:02.110Z,35.40
2022-09-18T19:11:32.039Z,49.30
2022-09-18T19:14:00.178Z,67.50
2022-09-18T19:16:32.178Z,63.00
2022-09-18T19:19:00.334Z,66.70
2022-09-18T19:21:28.538Z,74.30
2022-09-18T19:23:58.943Z,71.80
2022-09-18T19:26:27.879Z,69.00
2022-09-18T19:28:57.487Z,68.20
2022-09-18T19:31:26.156Z,69.70
2022-09-18T19:33:53.719Z,76.70
2022-09-18T19:36:22.824Z,80.20
2022-09-18T19:38:59.668Z,87.50
2022-09-18T19:41:26.335Z,85.20
2022-09-18T19:43:54.058Z,79.10
2022-09-18T19:46:27.183Z,80.30
2022-09-18T19:48:54.506Z,74.80
2022-09-18T19:51:21.272Z,76.60
2022-09-18T19:53:47.988Z,76.10
2022-09-18T19:56:33.055Z,75.00
2022-09-18T19:59:01.754Z,58.90
2022-09-18T20:01:28.584Z,46.00
2022-09-18T20:03:56.467Z,68.30
2022-09-18T20:06:23.212Z,76.00
2022-09-18T20:08:51.144Z,77.10
2022-09-18T20:11:18.200Z,77.20
2022-09-18T20:13:50.532Z,85.50
2022-09-18T20:16:18.193Z,84.70
2022-09-18T20:18:45.546Z,86.10
2022-09-18T20:21:15.000Z,88.40
2022-09-18T20:23:41.755Z,89.00
2022-09-18T20:26:13.735Z,89.90
2022-09-18T20:28:40.692Z,89.90
2022-09-18T20:31:10.333Z,88.50
2022-09-18T20:33:37.998Z,89.80
2022-09-18T20:36:06.464Z,88.40
2022-09-18T20:38:35.643Z,87.70
2022-09-18T20:41:13.399Z,90.20
2022-09-18T20:43:41.869Z,90.80
2022-09-18T20:46:14.168Z,90.90
2022-09-18T20:48:42.238Z,91.10
2022-09-18T20:51:11.868Z,91.20
2022-09-18T20:53:41.028Z,91.30
2022-09-18T20:56:09.804Z,91.30
2022-09-18T20:58:39.170Z,91.40
2022-09-18T21:01:14.396Z,91.20
2022-09-18T21:03:42.732Z,91.20
2022-09-18T21:06:22.474Z,91.20
2022-09-18T21:08:53.541Z,90.80
2022-09-18T21:11:31.260Z,90.70
2022-09-18T21:14:00.963Z,90.90
2022-09-18T21:16:30.595Z,91.10
2022-09-18T21:19:00.205Z,91.10
2022-09-18T21:21:28.978Z,91.00
2022-09-18T21:23:56.554Z,91.10
2022-09-18T21:26:30.554Z,91.20
2022-09-18T21:29:00.596Z,91.30
2022-09-18T21:31:28.288Z,91.20
2022-09-18T21:33:55.499Z,91.30
2022-09-18T21:36:24.041Z,91.30
2022-09-18T21:38:52.372Z,91.40
2022-09-18T21:41:21.058Z,91.40
2022-09-18T21:43:48.661Z,91.40
2022-09-18T21:46:19.328Z,91.30
2022-09-18T21:48:47.502Z,91.40
2022-09-18T21:51:17.150Z,91.40
2022-09-18T21:53:45.231Z,91.40
2022-09-18T21:56:17.339Z,91.40
2022-09-18T21:58:45.147Z,91.40
2022-09-18T22:01:23.840Z,91.50
2022-09-18T22:03:57.646Z,91.40
2022-09-18T22:06:26.595Z,91.40
2022-09-18T22:08:56.131Z,91.40
2022-09-18T22:11:30.706Z,91.40
2022-09-18T22:13:59.437Z,91.50
2022-09-18T22:16:29.437Z,91.50
2022-09-18T22:18:56.582Z,91.50
2022-09-18T22:21:31.818Z,91.60
2022-09-18T22:24:06.336Z,91.50
2022-09-18T22:26:45.631Z,91.50
2022-09-18T22:29:23.279Z,91.60
2022-09-18T22:31:50.924Z,91.60
2022-09-18T22:34:20.346Z,91.60
2022-09-18T22:36:48.484Z,91.60
2022-09-18T22:39:17.225Z,91.60
2022-09-18T22:41:44.439Z,91.60
2022-09-18T22:44:11.640Z,91.60
2022-09-18T22:46:40.698Z,91.60
2022-09-18T22:49:11.338Z,91.60
2022-09-18T22:51:39.817Z,91.60
2022-09-18T22:54:07.531Z,91.60
2022-09-18T22:56:44.759Z,91.60
2022-09-18T22:59:13.062Z,91.60
2022-09-18T23:01:46.276Z,91.70
2022-09-18T23:04:13.630Z,91.70
2022-09-18T23:06:40.370Z,91.70
2022-09-18T23:09:07.569Z,91.70
2022-09-18T23:11:34.876Z,91.70
2022-09-18T23:14:07.544Z,91.70
2022-09-18T23:16:36.277Z,91.70
2022-09-18T23:19:06.910Z,91.70
2022-09-18T23:21:35.059Z,91.60
2022-09-18T23:24:08.720Z,91.70
2022-09-18T23:26:39.310Z,91.70
2022-09-18T23:29:08.725Z,91.60
2022-09-18T23:31:37.626Z,91.60
2022-09-18T23:34:07.547Z,91.70
2022-09-18T23:36:42.624Z,91.70
2022-09-18T23:39:25.444Z,91.70
2022-09-18T23:41:52.583Z,91.70
2022-09-18T23:44:21.307Z,91.70
2022-09-18T23:46:49.077Z,91.70
2022-09-18T23:49:17.022Z,91.70
2022-09-18T23:51:48.064Z,91.70
2022-09-18T23:54:17.836Z,91.70
2022-09-18T23:56:45.413Z,91.60
2022-09-18T23:59:13.261Z,91.60
